Boars Hill, United Kingdom
Current Conditions -  °F | °C
As of 10:20 PM on Sunday 21 Dec 2014 (Local Time) from EGTK Reporting Station
Overcast Overcast  
Wind Chill: 52°   Ceiling: 900
Heat Index: 52°   Visibility: 6mi
Dew Point: 52°   Wind: 21mph
Humidity: 100%   Direction: 240°WSW
Pressure: 30.12"   Gusts: 32mph
Location:  51.72°N, 1.29°W
Report Text: EGTK 212220Z 24018G28KT 9999 BKN009 OVC010 11/11 Q1020
Loading
Personal Weather Stations






























Interactive Weather Map New forecast layout! Learn more

10-Day Weather Forecast

Advertisements
Track Severe Weather on mobile